createdAt,value
2022-12-14T00:00:04.022Z,20.90
2022-12-14T00:02:34.268Z,20.90
2022-12-14T00:05:04.631Z,20.90
2022-12-14T00:07:34.819Z,21.00
2022-12-14T00:10:05.336Z,21.00
2022-12-14T00:12:35.514Z,21.00
2022-12-14T00:15:05.982Z,21.10
2022-12-14T00:17:36.200Z,21.10
2022-12-14T00:20:07.084Z,21.10
2022-12-14T00:22:37.531Z,21.10
2022-12-14T00:25:08.945Z,21.10
2022-12-14T00:27:43.680Z,21.10
2022-12-14T00:30:18.447Z,21.10
2022-12-14T00:32:49.340Z,21.10
2022-12-14T00:35:20.958Z,21.10
2022-12-14T00:37:51.311Z,21.10
2022-12-14T00:40:21.825Z,21.00
2022-12-14T00:42:52.037Z,21.00
2022-12-14T00:45:22.282Z,21.00
2022-12-14T00:47:52.523Z,21.00
2022-12-14T00:50:22.731Z,21.10
2022-12-14T00:52:52.990Z,21.00
2022-12-14T00:55:26.786Z,21.10
2022-12-14T00:57:57.089Z,21.10
2022-12-14T01:00:27.328Z,21.10
2022-12-14T01:02:57.506Z,21.10
2022-12-14T01:05:27.932Z,21.10
2022-12-14T01:07:58.207Z,21.10
2022-12-14T01:10:28.439Z,21.10
2022-12-14T01:12:58.643Z,21.10
2022-12-14T01:15:28.896Z,21.10
2022-12-14T01:17:59.118Z,21.10
2022-12-14T01:20:29.315Z,21.10
2022-12-14T01:23:00.058Z,21.10
2022-12-14T01:25:30.498Z,21.10
2022-12-14T01:28:00.776Z,21.10
2022-12-14T01:30:31.094Z,21.10
2022-12-14T01:33:02.416Z,21.10
2022-12-14T01:35:32.671Z,21.10
2022-12-14T01:38:02.884Z,21.10
2022-12-14T01:40:33.127Z,21.10
2022-12-14T01:43:03.393Z,21.10
2022-12-14T01:45:33.722Z,21.10
2022-12-14T01:48:06.448Z,21.10
2022-12-14T01:50:42.334Z,21.10
2022-12-14T01:53:20.804Z,21.10
2022-12-14T01:55:56.400Z,21.10
2022-12-14T01:58:28.472Z,21.10
2022-12-14T02:01:01.708Z,21.10
2022-12-14T02:03:39.184Z,21.10
2022-12-14T02:06:43.064Z,21.10
2022-12-14T02:09:18.539Z,21.10
2022-12-14T02:12:01.274Z,21.10
2022-12-14T02:14:32.762Z,21.00
2022-12-14T02:17:04.030Z,21.00
2022-12-14T02:19:34.256Z,21.10
2022-12-14T02:22:31.427Z,21.00
2022-12-14T02:25:35.990Z,21.10
2022-12-14T02:28:06.167Z,21.00
2022-12-14T02:30:40.199Z,21.00
2022-12-14T02:33:39.738Z,21.00
2022-12-14T02:36:28.122Z,21.10
2022-12-14T02:39:24.110Z,21.00
2022-12-14T02:42:08.282Z,21.10
2022-12-14T02:44:56.508Z,21.10
2022-12-14T02:47:26.884Z,21.10
2022-12-14T02:50:13.816Z,21.10
2022-12-14T02:52:50.205Z,21.20
2022-12-14T02:55:28.308Z,21.20
2022-12-14T02:58:07.045Z,21.20
2022-12-14T03:00:40.444Z,21.20
2022-12-14T03:03:11.026Z,21.20
2022-12-14T03:05:41.301Z,21.30
2022-12-14T03:08:27.126Z,21.20
2022-12-14T03:11:03.324Z,21.30
2022-12-14T03:13:58.809Z,21.30
2022-12-14T03:16:36.753Z,21.30
2022-12-14T03:19:30.716Z,21.30
2022-12-14T03:22:13.782Z,21.30
2022-12-14T03:24:51.862Z,21.40
2022-12-14T03:27:35.201Z,21.40
2022-12-14T03:30:31.688Z,21.40
2022-12-14T03:33:15.602Z,21.40
2022-12-14T03:36:14.637Z,21.40
2022-12-14T03:38:50.990Z,21.40
2022-12-14T03:41:33.156Z,21.40
2022-12-14T03:44:49.246Z,21.50
2022-12-14T03:47:30.259Z,21.50
2022-12-14T03:50:45.000Z,21.50
2022-12-14T03:53:36.550Z,21.50
2022-12-14T03:56:15.415Z,21.50
2022-12-14T03:59:03.466Z,21.50
2022-12-14T04:01:36.500Z,21.60
2022-12-14T04:04:31.049Z,21.60
2022-12-14T04:07:13.175Z,21.60
2022-12-14T04:09:58.185Z,21.60
2022-12-14T04:13:01.229Z,21.60
2022-12-14T04:15:55.142Z,21.60
2022-12-14T04:18:59.303Z,21.60
2022-12-14T04:22:01.641Z,21.60
2022-12-14T04:24:56.804Z,21.60
2022-12-14T04:27:38.508Z,21.60
2022-12-14T04:30:10.876Z,21.60
2022-12-14T04:33:02.324Z,21.60
2022-12-14T04:35:42.499Z,21.50
2022-12-14T04:38:37.227Z,21.50
2022-12-14T04:41:11.291Z,21.50
2022-12-14T04:43:49.087Z,21.50
2022-12-14T04:46:24.602Z,21.50
2022-12-14T04:49:10.809Z,21.50
2022-12-14T04:52:29.776Z,21.60
2022-12-14T04:55:22.939Z,21.60
2022-12-14T04:58:25.406Z,21.60
2022-12-14T05:01:14.296Z,21.60
2022-12-14T05:04:12.341Z,21.60
2022-12-14T05:07:41.217Z,21.60
2022-12-14T05:10:27.011Z,21.70
2022-12-14T05:13:08.953Z,21.70
2022-12-14T05:15:54.199Z,21.70
2022-12-14T05:18:25.436Z,21.90
2022-12-14T05:20:55.689Z,21.80
2022-12-14T05:23:26.645Z,21.80
2022-12-14T05:25:57.375Z,21.80
2022-12-14T05:28:27.750Z,21.80
2022-12-14T05:30:58.084Z,21.80
2022-12-14T05:33:28.538Z,21.80
2022-12-14T05:35:59.077Z,21.80
2022-12-14T05:38:35.297Z,21.80
2022-12-14T05:41:05.674Z,21.80
2022-12-14T05:43:36.066Z,21.80
2022-12-14T05:46:07.623Z,21.80
2022-12-14T05:48:37.823Z,21.80
2022-12-14T05:51:10.265Z,21.80
2022-12-14T05:53:41.841Z,21.80
2022-12-14T05:56:13.675Z,21.70
2022-12-14T05:58:44.065Z,21.70
2022-12-14T06:01:19.444Z,21.70
2022-12-14T06:03:50.297Z,21.60
2022-12-14T06:06:20.651Z,21.60
2022-12-14T06:08:51.325Z,21.60
2022-12-14T06:11:24.013Z,21.60
2022-12-14T06:13:54.615Z,21.60
2022-12-14T06:16:27.304Z,21.60
2022-12-14T06:19:00.756Z,21.70
2022-12-14T06:21:36.098Z,21.70
2022-12-14T06:24:07.738Z,21.70
2022-12-14T06:26:39.197Z,21.70
2022-12-14T06:29:10.508Z,21.70
2022-12-14T06:31:40.686Z,21.70
2022-12-14T06:34:12.565Z,21.70
2022-12-14T06:36:44.906Z,21.80
2022-12-14T06:39:18.374Z,21.80
2022-12-14T06:41:53.219Z,21.80
2022-12-14T06:44:23.493Z,21.80
2022-12-14T06:46:53.782Z,21.80
2022-12-14T06:49:24.142Z,21.80
2022-12-14T06:51:54.502Z,21.80
2022-12-14T06:54:24.876Z,21.80
2022-12-14T06:56:55.119Z,21.80
2022-12-14T06:59:25.346Z,21.80
2022-12-14T07:01:55.739Z,21.80
2022-12-14T07:04:26.291Z,21.80
2022-12-14T07:06:56.552Z,21.80
2022-12-14T07:09:26.793Z,21.80
2022-12-14T07:11:57.087Z,21.80
2022-12-14T07:14:27.293Z,21.80
2022-12-14T07:16:57.614Z,21.80
2022-12-14T07:19:27.794Z,21.70
2022-12-14T07:21:57.934Z,21.70
2022-12-14T07:24:28.219Z,21.80
2022-12-14T07:26:58.500Z,21.70
2022-12-14T07:29:34.319Z,21.70
2022-12-14T07:32:05.849Z,21.70
2022-12-14T07:34:36.113Z,21.70
2022-12-14T07:37:06.478Z,21.70
2022-12-14T07:39:36.860Z,21.70
2022-12-14T07:42:07.072Z,21.70
2022-12-14T07:44:37.223Z,21.70
2022-12-14T07:47:07.614Z,21.70
2022-12-14T07:49:38.733Z,21.70
2022-12-14T07:52:10.108Z,21.70
2022-12-14T07:54:41.058Z,21.80
2022-12-14T07:57:11.781Z,21.70
2022-12-14T07:59:42.583Z,21.70
2022-12-14T08:02:14.678Z,21.70
2022-12-14T08:04:45.700Z,21.80
2022-12-14T08:07:16.261Z,21.70
2022-12-14T08:09:46.853Z,21.70
2022-12-14T08:12:17.868Z,21.70
2022-12-14T08:14:48.386Z,21.70
2022-12-14T08:17:19.805Z,21.70
2022-12-14T08:19:50.297Z,21.70
2022-12-14T08:22:21.116Z,21.70
2022-12-14T08:24:52.095Z,21.70
2022-12-14T08:27:22.850Z,21.70
2022-12-14T08:29:53.685Z,21.70
2022-12-14T08:32:23.986Z,21.70
2022-12-14T08:34:54.259Z,21.70
2022-12-14T08:37:24.459Z,21.70
2022-12-14T08:39:54.698Z,21.70
2022-12-14T08:42:24.867Z,21.70
2022-12-14T08:44:55.235Z,21.70
2022-12-14T08:47:25.488Z,21.70
2022-12-14T08:49:55.707Z,21.70
2022-12-14T08:52:26.422Z,21.70
2022-12-14T08:54:56.665Z,21.70
2022-12-14T08:57:26.999Z,21.70
2022-12-14T09:00:01.972Z,21.70
2022-12-14T09:02:32.793Z,21.70
2022-12-14T09:05:03.639Z,21.70
2022-12-14T09:07:34.641Z,21.70
2022-12-14T09:10:05.766Z,21.70
2022-12-14T09:12:38.813Z,21.70
2022-12-14T09:15:10.342Z,21.70
2022-12-14T09:17:41.162Z,21.60
2022-12-14T09:20:14.940Z,21.60
2022-12-14T09:22:45.392Z,21.70
2022-12-14T09:25:16.046Z,21.70
2022-12-14T09:27:46.245Z,21.70
2022-12-14T09:30:20.414Z,21.60
2022-12-14T09:32:53.468Z,21.60
2022-12-14T09:35:24.496Z,21.60
2022-12-14T09:37:54.724Z,21.60
2022-12-14T09:40:29.359Z,21.60
2022-12-14T09:43:09.339Z,21.60
2022-12-14T09:45:52.939Z,21.60
2022-12-14T09:48:28.571Z,21.60
2022-12-14T09:50:59.195Z,21.60
2022-12-14T09:53:30.114Z,21.60
2022-12-14T09:56:01.875Z,21.60
2022-12-14T09:58:34.091Z,21.60
2022-12-14T10:01:25.843Z,21.60
2022-12-14T10:04:05.090Z,21.70
2022-12-14T10:07:02.537Z,21.70
2022-12-14T10:09:42.177Z,21.70
2022-12-14T10:12:34.531Z,21.70
2022-12-14T10:15:28.839Z,21.70
2022-12-14T10:18:27.441Z,21.70
2022-12-14T10:21:06.550Z,21.70
2022-12-14T10:23:38.074Z,21.70
2022-12-14T10:26:10.635Z,21.70
2022-12-14T10:29:00.937Z,21.70
2022-12-14T10:31:52.682Z,21.70
2022-12-14T10:34:25.863Z,21.70
2022-12-14T10:37:05.315Z,21.70
2022-12-14T10:39:56.661Z,21.70
2022-12-14T10:42:58.992Z,21.70
2022-12-14T10:45:40.863Z,21.70
2022-12-14T10:48:42.174Z,21.70
2022-12-14T10:51:30.863Z,21.60
2022-12-14T10:54:13.628Z,21.60
2022-12-14T10:56:54.509Z,21.60
2022-12-14T10:59:27.566Z,21.60
2022-12-14T11:02:04.174Z,21.50
2022-12-14T11:04:37.357Z,21.50
2022-12-14T11:07:13.649Z,21.50
2022-12-14T11:09:44.526Z,21.50
2022-12-14T11:12:19.818Z,21.50
2022-12-14T11:15:05.349Z,21.40
2022-12-14T11:18:07.010Z,21.40
2022-12-14T11:20:37.307Z,21.40
2022-12-14T11:23:27.666Z,21.40
2022-12-14T11:26:02.125Z,21.40
2022-12-14T11:28:39.896Z,21.30
2022-12-14T11:31:15.415Z,21.30
2022-12-14T11:33:57.033Z,21.30
2022-12-14T11:36:39.551Z,21.30
2022-12-14T11:39:26.120Z,21.20
2022-12-14T11:42:05.127Z,21.30
2022-12-14T11:44:41.104Z,21.20
2022-12-14T11:47:20.926Z,21.20
2022-12-14T11:49:56.130Z,21.20
2022-12-14T11:52:41.631Z,21.20
2022-12-14T11:55:26.195Z,21.20
2022-12-14T11:58:01.780Z,21.10
2022-12-14T12:01:02.342Z,21.10
2022-12-14T12:03:49.458Z,21.10
2022-12-14T12:06:27.110Z,21.10
2022-12-14T12:09:03.859Z,21.00
2022-12-14T12:11:37.303Z,21.10
2022-12-14T12:14:20.110Z,21.00
2022-12-14T12:16:50.894Z,21.00
2022-12-14T12:19:37.662Z,21.00
2022-12-14T12:22:11.139Z,21.00
2022-12-14T12:25:23.619Z,21.00
2022-12-14T12:27:43.452Z,21.00
2022-12-14T12:30:33.887Z,20.90
2022-12-14T12:33:31.709Z,20.90
2022-12-14T12:36:08.553Z,20.90
2022-12-14T12:38:50.605Z,20.90
2022-12-14T12:41:51.476Z,20.90
2022-12-14T12:44:27.490Z,20.90
2022-12-14T12:47:29.038Z,20.80
2022-12-14T12:50:09.536Z,20.80
2022-12-14T12:52:55.390Z,20.80
2022-12-14T12:55:30.373Z,20.80
2022-12-14T12:58:04.690Z,20.70
2022-12-14T13:00:36.025Z,20.80
2022-12-14T13:03:26.832Z,20.70
2022-12-14T13:06:00.089Z,20.70
2022-12-14T13:08:35.581Z,20.70
2022-12-14T13:11:26.077Z,20.70
2022-12-14T13:14:04.395Z,20.70
2022-12-14T13:16:44.123Z,20.70
2022-12-14T13:19:51.219Z,20.70
2022-12-14T13:22:30.765Z,20.60
2022-12-14T13:25:13.150Z,20.60
2022-12-14T13:27:55.408Z,20.60
2022-12-14T13:30:31.406Z,20.60
2022-12-14T13:33:10.467Z,20.60
2022-12-14T13:36:16.680Z,20.50
2022-12-14T13:39:20.583Z,20.50
2022-12-14T13:42:30.224Z,20.50
2022-12-14T13:45:25.558Z,20.50
2022-12-14T13:47:58.394Z,20.40
2022-12-14T13:50:37.012Z,20.40
2022-12-14T13:53:30.122Z,20.40
2022-12-14T13:56:02.198Z,20.40
2022-12-14T13:58:44.580Z,20.40
2022-12-14T14:01:39.463Z,20.40
2022-12-14T14:04:15.868Z,20.40
2022-12-14T14:06:48.525Z,20.30
2022-12-14T14:10:10.164Z,20.30
2022-12-14T14:12:43.642Z,20.30
2022-12-14T14:15:28.977Z,20.30
2022-12-14T14:18:15.350Z,20.20
2022-12-14T14:20:51.522Z,20.20
2022-12-14T14:23:25.937Z,20.20
2022-12-14T14:26:27.101Z,20.20
2022-12-14T14:29:17.341Z,20.20
2022-12-14T14:31:59.857Z,20.20
2022-12-14T14:34:36.384Z,20.10
2022-12-14T14:37:27.723Z,20.10
2022-12-14T14:40:16.632Z,20.10
2022-12-14T14:43:05.015Z,20.10
2022-12-14T14:45:40.537Z,20.10
2022-12-14T14:48:38.019Z,20.00
2022-12-14T14:51:16.061Z,20.00
2022-12-14T14:53:46.700Z,20.00
2022-12-14T14:56:33.050Z,20.00
2022-12-14T15:00:02.676Z,20.00
2022-12-14T15:02:42.418Z,20.00
2022-12-14T15:08:41.459Z,19.90
2022-12-14T15:11:20.595Z,19.90
2022-12-14T15:14:04.773Z,19.90
2022-12-14T15:16:43.526Z,19.90
2022-12-14T15:19:35.184Z,19.80
2022-12-14T15:22:11.127Z,19.80
2022-12-14T15:24:46.379Z,19.80
2022-12-14T15:27:33.014Z,19.80
2022-12-14T15:30:25.509Z,19.80
2022-12-14T15:33:05.194Z,19.80
2022-12-14T15:35:49.569Z,19.70
2022-12-14T15:38:34.688Z,19.80
2022-12-14T15:41:08.493Z,19.80
2022-12-14T15:43:44.534Z,19.70
2022-12-14T15:46:21.102Z,19.70
2022-12-14T15:48:59.230Z,19.70
2022-12-14T15:51:41.666Z,19.70
2022-12-14T15:54:20.113Z,19.70
2022-12-14T15:56:59.331Z,19.70
2022-12-14T15:59:37.337Z,19.60
2022-12-14T16:02:27.274Z,19.60
2022-12-14T16:05:00.338Z,19.60
2022-12-14T16:07:40.121Z,19.60
2022-12-14T16:10:24.681Z,19.60
2022-12-14T16:13:22.249Z,19.50
2022-12-14T16:15:53.814Z,19.50
2022-12-14T16:18:24.228Z,19.50
2022-12-14T16:21:05.633Z,19.40
2022-12-14T16:23:44.870Z,19.50
2022-12-14T16:26:18.634Z,19.40
2022-12-14T16:28:49.197Z,19.40
2022-12-14T16:31:26.410Z,19.40
2022-12-14T16:34:26.855Z,19.40
2022-12-14T16:39:57.175Z,19.40
2022-12-14T16:42:29.689Z,19.30
2022-12-14T16:45:00.216Z,19.30
2022-12-14T16:47:38.008Z,19.30
2022-12-14T16:50:55.530Z,19.30
2022-12-14T16:53:26.139Z,19.30
2022-12-14T16:56:21.502Z,19.20
2022-12-14T16:59:05.787Z,19.20
2022-12-14T17:01:49.868Z,19.20
2022-12-14T17:04:21.741Z,19.20
2022-12-14T17:06:55.839Z,19.20
2022-12-14T17:09:29.098Z,19.20
2022-12-14T17:12:03.137Z,19.20
2022-12-14T17:14:33.864Z,19.10
2022-12-14T17:17:06.212Z,19.10
2022-12-14T17:19:39.127Z,19.10
2022-12-14T17:22:22.718Z,19.10
2022-12-14T17:24:53.279Z,19.00
2022-12-14T17:27:25.099Z,19.00
2022-12-14T17:29:56.770Z,19.00
2022-12-14T17:32:32.384Z,19.00
2022-12-14T17:35:03.109Z,19.00
2022-12-14T17:37:36.718Z,19.00
2022-12-14T17:40:07.747Z,19.00
2022-12-14T17:42:42.055Z,19.00
2022-12-14T17:45:27.764Z,18.90
2022-12-14T17:47:58.723Z,18.90
2022-12-14T17:50:28.978Z,18.90
2022-12-14T17:52:59.377Z,18.90
2022-12-14T17:55:31.478Z,18.90
2022-12-14T17:58:03.254Z,18.90
2022-12-14T18:00:51.768Z,18.80
2022-12-14T18:03:22.913Z,18.80
2022-12-14T18:05:54.122Z,18.80
2022-12-14T18:08:36.500Z,18.80
2022-12-14T18:11:13.647Z,18.80
2022-12-14T18:13:45.199Z,18.80
2022-12-14T18:16:20.601Z,18.70
2022-12-14T18:18:51.827Z,18.70
2022-12-14T18:21:24.891Z,18.70
2022-12-14T18:23:55.695Z,18.70
2022-12-14T18:26:26.474Z,18.70
2022-12-14T18:28:58.058Z,18.70
2022-12-14T18:31:39.788Z,18.70
2022-12-14T18:34:11.841Z,18.70
2022-12-14T18:36:46.576Z,18.60
2022-12-14T18:39:17.719Z,18.60
2022-12-14T18:41:47.952Z,18.60
2022-12-14T18:44:18.644Z,18.60
2022-12-14T18:46:50.393Z,18.60
2022-12-14T18:49:21.000Z,18.50
2022-12-14T18:51:51.551Z,18.50
2022-12-14T18:54:22.026Z,18.50
2022-12-14T18:56:52.673Z,18.50
2022-12-14T18:59:22.941Z,18.50
2022-12-14T19:01:53.362Z,18.40
2022-12-14T19:04:24.457Z,18.50
2022-12-14T19:06:55.287Z,18.50
2022-12-14T19:09:25.767Z,18.50
2022-12-14T19:11:59.769Z,18.50
2022-12-14T19:14:29.952Z,18.40
2022-12-14T19:17:00.164Z,18.50
2022-12-14T19:19:36.754Z,18.50
2022-12-14T19:22:12.059Z,18.50
2022-12-14T19:24:45.350Z,18.40
2022-12-14T19:27:36.343Z,18.40
2022-12-14T19:30:11.716Z,18.40
2022-12-14T19:32:42.597Z,18.40
2022-12-14T19:35:13.036Z,18.30
2022-12-14T19:37:43.504Z,18.30
2022-12-14T19:40:15.171Z,18.30
2022-12-14T19:42:47.699Z,18.30
2022-12-14T19:45:19.155Z,18.30
2022-12-14T19:47:49.677Z,18.30
2022-12-14T19:50:21.283Z,18.30
2022-12-14T19:52:54.103Z,18.20
2022-12-14T19:55:24.885Z,18.20
2022-12-14T19:57:55.072Z,18.20
2022-12-14T20:00:25.358Z,18.20
2022-12-14T20:02:56.221Z,18.20
2022-12-14T20:05:26.727Z,18.20
2022-12-14T20:07:57.013Z,18.10
2022-12-14T20:10:27.239Z,18.10
2022-12-14T20:12:57.462Z,18.10
2022-12-14T20:15:27.651Z,18.10
2022-12-14T20:17:57.995Z,18.10
2022-12-14T20:20:30.919Z,18.10
2022-12-14T20:23:01.175Z,18.10
2022-12-14T20:25:34.837Z,18.10
2022-12-14T20:28:05.363Z,18.10
2022-12-14T20:30:36.663Z,18.10
2022-12-14T20:33:06.948Z,18.10
2022-12-14T20:35:37.150Z,18.20
2022-12-14T20:38:07.511Z,18.20
2022-12-14T20:40:39.250Z,18.30
2022-12-14T20:43:10.184Z,18.30
2022-12-14T20:45:42.353Z,18.30
2022-12-14T20:48:13.038Z,18.30
2022-12-14T20:50:49.847Z,18.30
2022-12-14T20:53:22.512Z,18.40
2022-12-14T20:55:52.714Z,18.40
2022-12-14T20:58:22.926Z,18.40
2022-12-14T21:00:53.138Z,18.40
2022-12-14T21:03:23.519Z,18.40
2022-12-14T21:05:53.737Z,18.50
2022-12-14T21:08:27.152Z,18.40
2022-12-14T21:11:26.931Z,18.50
2022-12-14T21:13:57.127Z,18.50
2022-12-14T21:16:27.337Z,18.50
2022-12-14T21:18:57.651Z,18.50
2022-12-14T21:21:28.108Z,18.50
2022-12-14T21:23:58.365Z,18.50
2022-12-14T21:26:28.772Z,18.60
2022-12-14T21:28:58.999Z,18.60
2022-12-14T21:31:29.331Z,18.60
2022-12-14T21:34:03.848Z,18.60
2022-12-14T21:36:36.044Z,18.70
2022-12-14T21:39:06.434Z,18.60
2022-12-14T21:41:54.796Z,18.50
2022-12-14T21:44:25.296Z,18.50
2022-12-14T21:46:55.454Z,18.40
2022-12-14T21:49:25.987Z,18.40
2022-12-14T21:52:00.082Z,18.30
2022-12-14T21:54:30.465Z,18.30
2022-12-14T21:57:18.788Z,18.30
2022-12-14T21:59:49.256Z,18.30
2022-12-14T22:02:25.059Z,18.30
2022-12-14T22:04:57.835Z,18.40
2022-12-14T22:07:33.400Z,18.50
2022-12-14T22:10:04.059Z,18.60
2022-12-14T22:12:34.352Z,18.70
2022-12-14T22:15:04.674Z,18.70
2022-12-14T22:17:34.885Z,18.80
2022-12-14T22:20:05.386Z,18.80
2022-12-14T22:22:35.617Z,18.90
2022-12-14T22:25:06.266Z,18.90
2022-12-14T22:27:36.549Z,19.00
2022-12-14T22:30:07.601Z,19.10
2022-12-14T22:32:37.823Z,19.00
2022-12-14T22:35:11.456Z,19.10
2022-12-14T22:37:42.367Z,19.20
2022-12-14T22:40:13.052Z,19.20
2022-12-14T22:42:43.349Z,19.20
2022-12-14T22:45:13.693Z,19.30
2022-12-14T22:47:44.191Z,19.30
2022-12-14T22:50:14.516Z,19.30
2022-12-14T22:52:44.768Z,19.40
2022-12-14T22:55:20.427Z,19.50
2022-12-14T22:57:50.943Z,19.50
2022-12-14T23:00:21.404Z,19.50
2022-12-14T23:02:52.143Z,19.60
2022-12-14T23:05:22.800Z,19.60
2022-12-14T23:07:55.014Z,19.60
2022-12-14T23:10:43.476Z,19.70
2022-12-14T23:13:31.775Z,19.70
2022-12-14T23:16:20.129Z,19.70
2022-12-14T23:19:08.265Z,19.80
2022-12-14T23:21:57.869Z,19.80
2022-12-14T23:24:45.855Z,19.80
2022-12-14T23:27:34.294Z,19.90
2022-12-14T23:30:22.477Z,19.90
2022-12-14T23:33:10.757Z,20.00
2022-12-14T23:35:58.716Z,20.00
2022-12-14T23:38:50.117Z,20.00
2022-12-14T23:41:37.971Z,20.00
2022-12-14T23:44:25.939Z,20.10
2022-12-14T23:47:14.463Z,20.10
2022-12-14T23:50:02.679Z,20.10
2022-12-14T23:52:51.387Z,20.20
2022-12-14T23:55:39.970Z,20.20
2022-12-14T23:58:28.155Z,20.20
